createdAt,value
2022-09-30T00:00:44.345Z,13.27
2022-09-30T00:03:12.355Z,13.36
2022-09-30T00:05:40.232Z,13.43
2022-09-30T00:08:07.838Z,13.20
2022-09-30T00:10:35.747Z,13.12
2022-09-30T00:13:03.593Z,13.15
2022-09-30T00:15:31.156Z,13.02
2022-09-30T00:17:59.118Z,13.16
2022-09-30T00:20:26.888Z,13.07
2022-09-30T00:22:54.523Z,13.28
2022-09-30T00:25:22.494Z,13.23
2022-09-30T00:27:50.205Z,13.02
2022-09-30T00:30:17.871Z,12.79
2022-09-30T00:32:45.768Z,13.04
2022-09-30T00:35:13.388Z,13.12
2022-09-30T00:37:40.962Z,13.14
2022-09-30T00:40:09.323Z,13.26
2022-09-30T00:42:40.341Z,13.29
2022-09-30T00:45:10.368Z,13.20
2022-09-30T00:47:47.619Z,13.26
2022-09-30T00:50:21.002Z,13.25
2022-09-30T00:52:54.099Z,13.21
2022-09-30T00:55:29.943Z,13.23
2022-09-30T00:57:59.745Z,13.14
2022-09-30T01:00:27.371Z,13.23
2022-09-30T01:02:55.250Z,13.29
2022-09-30T01:05:25.507Z,13.39
2022-09-30T01:07:56.680Z,13.49
2022-09-30T01:10:24.680Z,13.59
2022-09-30T01:12:52.740Z,13.56
2022-09-30T01:15:24.475Z,13.70
2022-09-30T01:18:07.384Z,13.59
2022-09-30T01:20:50.123Z,13.73
2022-09-30T01:23:24.408Z,13.71
2022-09-30T01:26:07.130Z,13.81
2022-09-30T01:28:41.153Z,13.64
2022-09-30T01:31:18.230Z,13.60
2022-09-30T01:34:05.442Z,13.64
2022-09-30T01:36:53.232Z,13.57
2022-09-30T01:39:24.000Z,13.56
2022-09-30T01:41:56.329Z,13.52
2022-09-30T01:44:58.146Z,13.49
2022-09-30T01:47:37.084Z,13.57
2022-09-30T01:50:08.690Z,13.65
2022-09-30T01:52:43.959Z,13.60
2022-09-30T01:55:43.037Z,13.74
2022-09-30T01:58:27.817Z,13.55
2022-09-30T02:00:59.341Z,13.58
2022-09-30T02:03:34.362Z,13.41
2022-09-30T02:06:05.986Z,13.46
2022-09-30T02:08:47.186Z,13.45
2022-09-30T02:11:21.072Z,13.63
2022-09-30T02:14:10.796Z,13.68
2022-09-30T02:16:43.853Z,13.73
2022-09-30T02:19:15.148Z,13.66
2022-09-30T02:21:45.148Z,13.60
2022-09-30T02:24:15.297Z,13.65
2022-09-30T02:26:44.278Z,13.56
2022-09-30T02:29:24.942Z,13.58
2022-09-30T02:31:56.137Z,13.74
2022-09-30T02:34:29.220Z,13.76
2022-09-30T02:37:09.107Z,13.73
2022-09-30T02:40:14.680Z,13.79
2022-09-30T02:42:44.164Z,13.89
2022-09-30T02:45:14.642Z,13.85
2022-09-30T02:48:02.901Z,13.76
2022-09-30T02:50:35.259Z,13.85
2022-09-30T02:53:53.880Z,13.89
2022-09-30T02:56:59.043Z,13.83
2022-09-30T02:59:27.500Z,13.74
2022-09-30T03:01:55.311Z,13.70
2022-09-30T03:04:25.716Z,13.64
2022-09-30T03:06:54.377Z,13.65
2022-09-30T03:09:28.731Z,13.61
2022-09-30T03:12:24.046Z,13.64
2022-09-30T03:15:25.761Z,13.60
2022-09-30T03:17:59.344Z,13.82
2022-09-30T03:20:26.717Z,13.71
2022-09-30T03:23:19.683Z,13.68
2022-09-30T03:26:05.423Z,13.65
2022-09-30T03:28:38.030Z,13.78
2022-09-30T03:31:25.789Z,13.68
2022-09-30T03:34:22.549Z,13.59
2022-09-30T03:36:50.062Z,13.66
2022-09-30T03:39:37.206Z,13.63
2022-09-30T03:42:13.021Z,13.60
2022-09-30T03:44:45.352Z,13.75
2022-09-30T03:47:14.931Z,13.61
2022-09-30T03:49:48.062Z,13.65
2022-09-30T03:52:15.915Z,13.61
2022-09-30T03:54:52.805Z,13.55
2022-09-30T03:57:20.387Z,13.63
2022-09-30T03:59:48.270Z,13.55
2022-09-30T04:02:15.836Z,13.72
2022-09-30T04:04:43.809Z,13.57
2022-09-30T04:07:11.788Z,13.56
2022-09-30T04:09:40.086Z,13.65
2022-09-30T04:12:08.487Z,13.71
2022-09-30T04:14:36.405Z,13.54
2022-09-30T04:17:05.182Z,13.63
2022-09-30T04:19:33.758Z,13.67
2022-09-30T04:22:01.395Z,13.67
2022-09-30T04:24:29.389Z,13.64
2022-09-30T04:26:57.252Z,13.63
2022-09-30T04:29:24.819Z,13.68
2022-09-30T04:31:52.451Z,13.72
2022-09-30T04:34:20.410Z,13.78
2022-09-30T04:36:48.114Z,13.72
2022-09-30T04:39:15.670Z,13.75
2022-09-30T04:41:43.573Z,13.67
2022-09-30T04:44:11.217Z,13.64
2022-09-30T04:46:38.937Z,13.85
2022-09-30T04:49:09.271Z,13.71
2022-09-30T04:51:37.335Z,13.68
2022-09-30T04:54:05.318Z,13.89
2022-09-30T04:56:33.265Z,13.93
2022-09-30T04:59:00.921Z,13.85
2022-09-30T05:01:28.539Z,13.96
2022-09-30T05:03:56.363Z,14.00
2022-09-30T05:06:23.967Z,13.98
2022-09-30T05:08:51.691Z,13.95
2022-09-30T05:11:20.818Z,13.90
2022-09-30T05:13:49.311Z,13.91
2022-09-30T05:16:17.443Z,13.91
2022-09-30T05:18:51.064Z,13.93
2022-09-30T05:21:19.554Z,13.83
2022-09-30T05:23:49.547Z,13.91
2022-09-30T05:26:17.180Z,13.84
2022-09-30T05:28:44.859Z,13.94
2022-09-30T05:31:12.758Z,14.06
2022-09-30T05:33:40.417Z,14.07
2022-09-30T05:36:09.631Z,14.05
2022-09-30T05:38:37.833Z,14.17
2022-09-30T05:41:10.848Z,14.17
2022-09-30T05:43:40.487Z,14.28
2022-09-30T05:46:08.323Z,14.31
2022-09-30T05:48:36.013Z,14.33
2022-09-30T05:51:04.084Z,14.38
2022-09-30T05:53:32.254Z,14.29
2022-09-30T05:56:00.594Z,14.24
2022-09-30T05:58:28.469Z,14.19
2022-09-30T06:00:56.097Z,14.18
2022-09-30T06:03:24.119Z,14.17
2022-09-30T06:05:57.638Z,14.31
2022-09-30T06:08:25.704Z,14.19
2022-09-30T06:10:53.378Z,14.30
2022-09-30T06:13:21.059Z,14.23
2022-09-30T06:15:57.027Z,14.26
2022-09-30T06:18:25.519Z,14.28
2022-09-30T06:20:56.435Z,14.21
2022-09-30T06:23:24.605Z,14.24
2022-09-30T06:25:53.367Z,14.23
2022-09-30T06:28:21.979Z,14.23
2022-09-30T06:30:49.788Z,14.17
2022-09-30T06:33:17.444Z,14.21
2022-09-30T06:35:45.341Z,14.13
2022-09-30T06:38:16.533Z,14.09
2022-09-30T06:40:45.173Z,14.18
2022-09-30T06:43:13.071Z,14.23
2022-09-30T06:45:40.839Z,14.20
2022-09-30T06:48:09.715Z,14.23
2022-09-30T06:50:38.228Z,14.08
2022-09-30T06:53:07.678Z,14.06
2022-09-30T06:55:36.248Z,14.10
2022-09-30T06:58:08.283Z,14.03
2022-09-30T07:00:36.205Z,14.16
2022-09-30T07:03:04.987Z,14.29
2022-09-30T07:05:32.607Z,14.25
2022-09-30T07:08:00.522Z,14.23
2022-09-30T07:10:28.368Z,14.28
2022-09-30T07:12:56.054Z,14.26
2022-09-30T07:15:23.688Z,14.10
2022-09-30T07:17:55.582Z,14.24
2022-09-30T07:20:23.443Z,14.25
2022-09-30T07:22:51.277Z,14.26
2022-09-30T07:25:18.912Z,14.17
2022-09-30T07:27:46.653Z,14.18
2022-09-30T07:30:24.001Z,14.25
2022-09-30T07:32:53.684Z,14.23
2022-09-30T07:35:21.604Z,14.02
2022-09-30T07:37:49.408Z,14.13
2022-09-30T07:40:17.255Z,14.28
2022-09-30T07:42:45.143Z,14.18
2022-09-30T07:45:13.148Z,14.07
2022-09-30T07:47:40.765Z,13.96
2022-09-30T07:50:08.711Z,14.01
2022-09-30T07:52:36.365Z,13.96
2022-09-30T07:55:04.207Z,14.07
2022-09-30T07:57:33.963Z,14.02
2022-09-30T08:00:17.023Z,13.96
2022-09-30T08:02:49.758Z,14.12
2022-09-30T08:05:17.341Z,14.13
2022-09-30T08:07:45.170Z,14.29
2022-09-30T08:10:13.144Z,14.26
2022-09-30T08:12:40.747Z,14.28
2022-09-30T08:15:08.820Z,14.08
2022-09-30T08:17:36.791Z,14.08
2022-09-30T08:20:07.486Z,14.13
2022-09-30T08:22:38.177Z,14.19
2022-09-30T08:25:06.413Z,14.27
2022-09-30T08:27:34.307Z,14.10
2022-09-30T08:30:04.695Z,14.15
2022-09-30T08:32:35.033Z,14.21
2022-09-30T08:35:02.956Z,14.22
2022-09-30T08:37:30.939Z,14.21
2022-09-30T08:39:58.679Z,14.21
2022-09-30T08:42:38.376Z,14.16
2022-09-30T08:45:20.218Z,14.30
2022-09-30T08:48:00.523Z,14.33
2022-09-30T08:50:53.132Z,14.22
2022-09-30T08:53:26.812Z,14.30
2022-09-30T08:55:55.533Z,14.20
2022-09-30T08:58:23.404Z,14.21
2022-09-30T09:00:54.763Z,14.21
2022-09-30T09:03:26.366Z,14.37
2022-09-30T09:06:16.909Z,14.59
2022-09-30T09:08:51.142Z,14.72
2022-09-30T09:11:47.312Z,14.96
2022-09-30T09:14:36.710Z,14.87
2022-09-30T09:17:31.229Z,15.17
2022-09-30T09:20:15.759Z,15.44
2022-09-30T09:22:45.369Z,15.68
2022-09-30T09:25:19.337Z,15.70
2022-09-30T09:28:00.324Z,15.60
2022-09-30T09:30:36.326Z,15.73
2022-09-30T09:33:18.671Z,15.90
2022-09-30T09:36:15.479Z,15.72
2022-09-30T09:39:01.977Z,15.88
2022-09-30T09:41:35.285Z,16.06
2022-09-30T09:44:06.770Z,16.12
2022-09-30T09:46:44.519Z,16.08
2022-09-30T09:49:15.292Z,16.26
2022-09-30T09:52:13.088Z,16.19
2022-09-30T09:54:43.858Z,16.08
2022-09-30T09:57:15.148Z,16.13
2022-09-30T10:00:02.082Z,16.16
2022-09-30T10:02:34.208Z,16.25
2022-09-30T10:05:02.097Z,16.07
2022-09-30T10:07:32.096Z,16.16
2022-09-30T10:10:23.833Z,16.16
2022-09-30T10:12:52.235Z,16.08
2022-09-30T10:15:24.531Z,16.21
2022-09-30T10:17:57.408Z,15.98
2022-09-30T10:20:31.705Z,15.66
2022-09-30T10:23:21.031Z,15.74
2022-09-30T10:26:15.017Z,16.04
2022-09-30T10:28:47.814Z,16.31
2022-09-30T10:31:37.910Z,16.33
2022-09-30T10:34:13.873Z,16.34
2022-09-30T10:36:42.945Z,16.18
2022-09-30T10:39:19.533Z,16.29
2022-09-30T10:41:47.249Z,16.29
2022-09-30T10:44:17.987Z,16.06
2022-09-30T10:46:48.018Z,16.13
2022-09-30T10:49:27.243Z,16.17
2022-09-30T10:51:56.738Z,16.25
2022-09-30T10:54:51.842Z,16.09
2022-09-30T10:57:25.635Z,16.30
2022-09-30T10:59:58.981Z,16.24
2022-09-30T11:02:53.282Z,16.10
2022-09-30T11:05:23.584Z,16.16
2022-09-30T11:08:04.928Z,16.19
2022-09-30T11:11:09.501Z,16.30
2022-09-30T11:13:50.695Z,16.19
2022-09-30T11:16:30.052Z,16.28
2022-09-30T11:19:16.192Z,16.15
2022-09-30T11:22:29.123Z,16.11
2022-09-30T11:24:56.860Z,16.01
2022-09-30T11:27:43.115Z,16.05
2022-09-30T11:30:18.695Z,15.93
2022-09-30T11:33:14.824Z,16.04
2022-09-30T11:36:27.142Z,16.33
2022-09-30T11:39:23.004Z,16.20
2022-09-30T11:42:01.110Z,16.28
2022-09-30T11:44:37.724Z,16.26
2022-09-30T11:47:05.623Z,16.12
2022-09-30T11:49:51.684Z,16.15
2022-09-30T11:52:40.493Z,16.18
2022-09-30T11:55:15.512Z,16.42
2022-09-30T11:57:51.357Z,16.66
2022-09-30T12:00:19.963Z,16.70
2022-09-30T12:02:59.520Z,16.58
2022-09-30T12:05:39.969Z,16.53
2022-09-30T12:08:12.813Z,16.78
2022-09-30T12:10:48.167Z,16.58
2022-09-30T12:13:23.480Z,16.70
2022-09-30T12:15:53.263Z,16.73
2022-09-30T12:18:24.855Z,17.42
2022-09-30T12:20:58.996Z,17.92
2022-09-30T12:23:29.645Z,18.00
2022-09-30T12:25:59.287Z,18.19
2022-09-30T12:28:36.832Z,17.88
2022-09-30T12:31:23.040Z,17.88
2022-09-30T12:34:00.128Z,17.84
2022-09-30T12:36:49.532Z,17.81
2022-09-30T12:39:30.092Z,17.90
2022-09-30T12:42:06.213Z,17.91
2022-09-30T12:44:58.815Z,17.49
2022-09-30T12:47:35.819Z,17.55
2022-09-30T12:50:07.207Z,17.70
2022-09-30T12:52:36.149Z,17.78
2022-09-30T12:55:32.089Z,18.11
2022-09-30T12:58:00.453Z,18.42
2022-09-30T13:00:33.707Z,18.56
2022-09-30T13:03:08.176Z,18.55
2022-09-30T13:05:36.351Z,18.66
2022-09-30T13:08:04.179Z,18.94
2022-09-30T13:10:37.795Z,18.41
2022-09-30T13:13:25.459Z,18.60
2022-09-30T13:15:55.837Z,18.53
2022-09-30T13:18:23.696Z,18.41
2022-09-30T13:20:55.541Z,18.37
2022-09-30T13:23:45.651Z,18.13
2022-09-30T13:26:22.797Z,18.06
2022-09-30T13:28:59.760Z,18.05
2022-09-30T13:31:53.687Z,18.01
2022-09-30T13:34:24.217Z,17.96
2022-09-30T13:36:52.181Z,17.84
2022-09-30T13:39:27.811Z,17.80
2022-09-30T13:42:07.265Z,17.81
2022-09-30T13:44:59.324Z,17.93
2022-09-30T13:47:27.564Z,17.61
2022-09-30T13:50:28.141Z,17.31
2022-09-30T13:53:02.220Z,17.14
2022-09-30T13:55:39.501Z,17.07
2022-09-30T13:58:17.239Z,16.76
2022-09-30T14:01:08.617Z,16.69
2022-09-30T14:03:51.842Z,16.74
2022-09-30T14:06:29.968Z,16.60
2022-09-30T14:09:17.281Z,16.67
2022-09-30T14:11:54.228Z,16.73
2022-09-30T14:14:40.587Z,16.76
2022-09-30T14:17:28.233Z,16.58
2022-09-30T14:20:19.458Z,16.68
2022-09-30T14:22:47.378Z,16.58
2022-09-30T14:25:18.069Z,16.74
2022-09-30T14:27:51.948Z,16.73
2022-09-30T14:30:22.380Z,16.79
2022-09-30T14:33:00.514Z,16.88
2022-09-30T14:35:35.531Z,17.03
2022-09-30T14:38:08.461Z,17.28
2022-09-30T14:40:37.957Z,17.55
2022-09-30T14:43:07.573Z,17.56
2022-09-30T14:45:38.873Z,17.50
2022-09-30T14:48:19.895Z,17.88
2022-09-30T14:50:52.327Z,17.99
2022-09-30T14:53:38.938Z,17.96
2022-09-30T14:56:20.458Z,17.57
2022-09-30T14:58:49.791Z,17.85
2022-09-30T15:01:19.220Z,17.91
2022-09-30T15:03:51.770Z,17.80
2022-09-30T15:06:22.235Z,17.68
2022-09-30T15:09:02.931Z,17.83
2022-09-30T15:11:34.830Z,17.64
2022-09-30T15:14:08.565Z,17.60
2022-09-30T15:16:48.819Z,17.49
2022-09-30T15:19:22.397Z,17.60
2022-09-30T15:21:52.602Z,17.49
2022-09-30T15:24:22.554Z,17.43
2022-09-30T15:26:52.344Z,17.32
2022-09-30T15:29:19.983Z,17.40
2022-09-30T15:31:51.207Z,17.17
2022-09-30T15:34:24.102Z,17.19
2022-09-30T15:37:02.044Z,17.13
2022-09-30T15:39:31.165Z,16.99
2022-09-30T15:42:00.075Z,16.87
2022-09-30T15:44:38.007Z,16.80
2022-09-30T15:47:09.953Z,16.75
2022-09-30T15:49:37.559Z,16.75
2022-09-30T15:52:31.087Z,16.58
2022-09-30T15:54:58.950Z,16.53
2022-09-30T15:57:47.596Z,16.45
2022-09-30T16:00:44.917Z,16.45
2022-09-30T16:03:19.034Z,16.35
2022-09-30T16:05:50.633Z,16.36
2022-09-30T16:08:27.038Z,16.37
2022-09-30T16:10:56.870Z,16.33
2022-09-30T16:13:27.802Z,16.24
2022-09-30T16:15:57.551Z,16.02
2022-09-30T16:18:32.816Z,16.12
2022-09-30T16:21:23.827Z,16.19
2022-09-30T16:23:51.856Z,16.12
2022-09-30T16:26:22.302Z,16.05
2022-09-30T16:28:53.071Z,16.00
2022-09-30T16:31:24.501Z,16.13
2022-09-30T16:33:52.321Z,15.90
2022-09-30T16:36:19.978Z,15.80
2022-09-30T16:38:47.919Z,15.80
2022-09-30T16:41:15.651Z,15.53
2022-09-30T16:43:43.294Z,15.21
2022-09-30T16:46:12.471Z,15.05
2022-09-30T16:48:40.787Z,15.04
2022-09-30T16:51:15.890Z,14.71
2022-09-30T16:53:43.822Z,14.62
2022-09-30T16:56:19.597Z,14.68
2022-09-30T16:58:47.847Z,14.71
2022-09-30T17:01:23.542Z,14.66
2022-09-30T17:03:55.606Z,14.75
2022-09-30T17:06:28.925Z,14.57
2022-09-30T17:08:57.091Z,14.51
2022-09-30T17:11:26.094Z,14.42
2022-09-30T17:13:53.734Z,14.35
2022-09-30T17:16:21.648Z,14.29
2022-09-30T17:18:50.245Z,14.34
2022-09-30T17:21:19.422Z,14.22
2022-09-30T17:23:47.634Z,14.37
2022-09-30T17:26:15.508Z,14.38
2022-09-30T17:28:45.429Z,14.31
2022-09-30T17:31:13.372Z,14.24
2022-09-30T17:33:41.216Z,14.04
2022-09-30T17:36:12.024Z,13.98
2022-09-30T17:38:40.472Z,14.03
2022-09-30T17:41:09.855Z,14.07
2022-09-30T17:43:37.493Z,14.17
2022-09-30T17:46:06.054Z,14.24
2022-09-30T17:48:33.733Z,14.20
2022-09-30T17:51:01.387Z,14.12
2022-09-30T17:53:29.376Z,14.32
2022-09-30T17:56:06.183Z,14.14
2022-09-30T17:58:34.324Z,14.06
2022-09-30T18:01:09.394Z,14.08
2022-09-30T18:03:37.687Z,13.95
2022-09-30T18:06:05.957Z,13.94
2022-09-30T18:08:34.166Z,13.88
2022-09-30T18:11:05.223Z,13.78
2022-09-30T18:13:32.997Z,13.94
2022-09-30T18:16:05.175Z,13.75
2022-09-30T18:18:34.401Z,13.85
2022-09-30T18:21:02.010Z,13.71
2022-09-30T18:23:29.674Z,13.41
2022-09-30T18:25:57.680Z,13.40
2022-09-30T18:28:25.618Z,13.29
2022-09-30T18:30:53.488Z,13.41
2022-09-30T18:33:21.489Z,13.35
2022-09-30T18:35:49.308Z,13.37
2022-09-30T18:38:17.105Z,13.30
2022-09-30T18:40:45.119Z,13.33
2022-09-30T18:43:14.183Z,13.38
2022-09-30T18:45:42.073Z,13.41
2022-09-30T18:48:10.263Z,13.21
2022-09-30T18:50:37.933Z,13.02
2022-09-30T18:53:09.191Z,13.09
2022-09-30T18:55:38.452Z,13.20
2022-09-30T18:58:07.403Z,13.16
2022-09-30T19:00:36.330Z,12.94
2022-09-30T19:03:04.562Z,13.01
2022-09-30T19:05:32.156Z,13.02
2022-09-30T19:07:59.774Z,13.28
2022-09-30T19:10:27.982Z,13.18
2022-09-30T19:12:55.721Z,13.22
2022-09-30T19:15:23.299Z,13.27
2022-09-30T19:17:51.249Z,13.33
2022-09-30T19:20:18.976Z,13.31
2022-09-30T19:22:48.445Z,13.33
2022-09-30T19:25:16.431Z,13.48
2022-09-30T19:27:44.247Z,13.52
2022-09-30T19:30:13.969Z,13.48
2022-09-30T19:32:41.932Z,13.54
2022-09-30T19:35:10.989Z,13.51
2022-09-30T19:37:39.572Z,13.53
2022-09-30T19:40:19.436Z,13.61
2022-09-30T19:42:49.394Z,13.66
2022-09-30T19:45:20.172Z,13.79
2022-09-30T19:47:50.540Z,13.87
2022-09-30T19:50:18.558Z,13.77
2022-09-30T19:52:55.965Z,13.71
2022-09-30T19:55:27.129Z,13.70
2022-09-30T19:57:54.784Z,13.89
2022-09-30T20:00:22.424Z,13.69
2022-09-30T20:02:50.439Z,13.67
2022-09-30T20:05:18.105Z,13.67
2022-09-30T20:07:45.748Z,13.80
2022-09-30T20:10:13.787Z,13.86
2022-09-30T20:12:41.449Z,13.89
2022-09-30T20:15:10.003Z,13.79
2022-09-30T20:17:37.898Z,13.80
2022-09-30T20:20:06.446Z,13.83
2022-09-30T20:22:34.025Z,13.71
2022-09-30T20:25:01.942Z,13.72
2022-09-30T20:27:29.556Z,13.68
2022-09-30T20:29:57.273Z,13.71
2022-09-30T20:32:25.172Z,13.81
2022-09-30T20:34:53.106Z,13.78
2022-09-30T20:37:20.759Z,13.78
2022-09-30T20:39:48.738Z,13.70
2022-09-30T20:42:16.373Z,13.64
2022-09-30T20:44:44.033Z,13.68
2022-09-30T20:47:12.179Z,13.65
2022-09-30T20:49:39.799Z,13.52
2022-09-30T20:52:07.547Z,13.48
2022-09-30T20:54:35.571Z,13.57
2022-09-30T20:57:07.262Z,13.58
2022-09-30T20:59:35.613Z,13.63
2022-09-30T21:02:03.482Z,13.61
2022-09-30T21:04:31.166Z,13.75
2022-09-30T21:07:01.970Z,13.79
2022-09-30T21:09:29.664Z,13.74
2022-09-30T21:11:57.272Z,13.72
2022-09-30T21:14:25.153Z,13.73
2022-09-30T21:16:52.774Z,13.77
2022-09-30T21:19:20.531Z,13.71
2022-09-30T21:21:48.475Z,13.67
2022-09-30T21:24:16.105Z,13.67
2022-09-30T21:26:43.697Z,13.72
2022-09-30T21:29:11.636Z,13.78
2022-09-30T21:31:39.520Z,13.74
2022-09-30T21:34:12.345Z,13.68
2022-09-30T21:36:40.611Z,13.75
2022-09-30T21:39:08.522Z,13.60
2022-09-30T21:41:36.534Z,13.77
2022-09-30T21:44:04.850Z,13.86
2022-09-30T21:46:32.486Z,13.91
2022-09-30T21:49:18.333Z,13.81
2022-09-30T21:51:46.511Z,13.74
2022-09-30T21:54:14.564Z,13.75
2022-09-30T21:56:42.903Z,13.78
2022-09-30T21:59:12.285Z,13.83
2022-09-30T22:01:40.227Z,13.94
2022-09-30T22:04:08.793Z,14.00
2022-09-30T22:06:36.397Z,13.88
2022-09-30T22:09:04.123Z,13.81
2022-09-30T22:11:32.543Z,13.90
2022-09-30T22:14:00.623Z,13.87
2022-09-30T22:16:30.174Z,13.88
2022-09-30T22:19:00.051Z,13.79
2022-09-30T22:21:29.437Z,13.83
2022-09-30T22:23:57.161Z,13.91
2022-09-30T22:26:26.076Z,13.83
2022-09-30T22:28:56.519Z,13.81
2022-09-30T22:31:26.662Z,13.79
2022-09-30T22:33:56.601Z,13.68
2022-09-30T22:36:24.251Z,13.63
2022-09-30T22:38:52.056Z,13.65
2022-09-30T22:41:19.926Z,13.75
2022-09-30T22:43:47.611Z,13.72
2022-09-30T22:46:15.276Z,13.68
2022-09-30T22:48:43.268Z,13.68
2022-09-30T22:51:19.939Z,13.80
2022-09-30T22:53:47.906Z,13.80
2022-09-30T22:56:15.584Z,13.81
2022-09-30T22:58:43.722Z,13.85
2022-09-30T23:01:11.719Z,14.02
2022-09-30T23:03:39.490Z,14.13
2022-09-30T23:06:07.659Z,14.08
2022-09-30T23:08:36.883Z,14.08
2022-09-30T23:11:04.659Z,13.98
2022-09-30T23:13:32.319Z,13.87
2022-09-30T23:16:00.837Z,14.00
2022-09-30T23:18:29.360Z,14.08
2022-09-30T23:20:58.006Z,13.98
2022-09-30T23:23:25.984Z,13.91
2022-09-30T23:26:06.982Z,13.96
2022-09-30T23:28:35.079Z,14.01
2022-09-30T23:31:04.468Z,13.94
2022-09-30T23:33:32.113Z,14.08
2022-09-30T23:36:00.146Z,14.00
2022-09-30T23:38:29.080Z,13.72
2022-09-30T23:40:56.914Z,13.77
2022-09-30T23:43:26.622Z,13.55
2022-09-30T23:45:54.330Z,13.61
2022-09-30T23:48:22.280Z,13.66
2022-09-30T23:50:54.845Z,13.67
2022-09-30T23:53:23.239Z,13.60
2022-09-30T23:56:02.843Z,13.54
2022-09-30T23:58:31.979Z,13.65
